sensor_id;sensor_type;location;lat;lon;timestamp;temperature;humidity
42965;DHT22;28604;51.204;22.552;2024-03-23T00:55:49;10.40;89.20
42965;DHT22;28604;51.204;22.552;2024-03-23T00:58:16;10.40;88.90
42965;DHT22;28604;51.204;22.552;2024-03-23T01:00:41;10.40;89.00
42965;DHT22;28604;51.204;22.552;2024-03-23T01:03:07;10.40;88.70
42965;DHT22;28604;51.204;22.552;2024-03-23T01:05:33;10.40;88.70
42965;DHT22;28604;51.204;22.552;2024-03-23T01:07:59;10.40;88.80
42965;DHT22;28604;51.204;22.552;2024-03-23T01:10:25;10.40;88.80
42965;DHT22;28604;51.204;22.552;2024-03-23T01:12:51;10.40;89.00
42965;DHT22;28604;51.204;22.552;2024-03-23T01:15:16;10.30;89.30
42965;DHT22;28604;51.204;22.552;2024-03-23T01:17:42;10.40;89.00
42965;DHT22;28604;51.204;22.552;2024-03-23T01:20:08;10.40;89.70
42965;DHT22;28604;51.204;22.552;2024-03-23T01:22:34;10.40;89.10
42965;DHT22;28604;51.204;22.552;2024-03-23T01:25:00;10.40;89.70
42965;DHT22;28604;51.204;22.552;2024-03-23T01:27:26;10.40;89.50
42965;DHT22;28604;51.204;22.552;2024-03-23T01:29:51;10.30;89.70
42965;DHT22;28604;51.204;22.552;2024-03-23T01:32:18;10.30;89.30
42965;DHT22;28604;51.204;22.552;2024-03-23T01:34:44;10.40;89.50
42965;DHT22;28604;51.204;22.552;2024-03-23T01:37:10;10.40;89.50
42965;DHT22;28604;51.204;22.552;2024-03-23T01:39:36;10.40;89.80
42965;DHT22;28604;51.204;22.552;2024-03-23T01:42:02;10.40;89.60
42965;DHT22;28604;51.204;22.552;2024-03-23T01:44:28;10.40;89.50
42965;DHT22;28604;51.204;22.552;2024-03-23T01:46:54;10.40;89.30
42965;DHT22;28604;51.204;22.552;2024-03-23T01:49:20;10.30;89.20
42965;DHT22;28604;51.204;22.552;2024-03-23T01:51:46;10.30;89.30
42965;DHT22;28604;51.204;22.552;2024-03-23T01:54:12;10.30;89.50
42965;DHT22;28604;51.204;22.552;2024-03-23T01:56:38;10.30;89.50
42965;DHT22;28604;51.204;22.552;2024-03-23T01:59:04;10.40;89.50
42965;DHT22;28604;51.204;22.552;2024-03-23T02:01:31;10.30;89.50
42965;DHT22;28604;51.204;22.552;2024-03-23T02:03:57;10.30;90.00
42965;DHT22;28604;51.204;22.552;2024-03-23T02:06:26;10.30;90.00
42965;DHT22;28604;51.204;22.552;2024-03-23T02:08:52;10.30;90.00
42965;DHT22;28604;51.204;22.552;2024-03-23T02:11:18;10.30;90.10
42965;DHT22;28604;51.204;22.552;2024-03-23T02:13:44;10.30;90.10
42965;DHT22;28604;51.204;22.552;2024-03-23T02:16:10;10.30;90.50
42965;DHT22;28604;51.204;22.552;2024-03-23T02:18:36;10.30;90.30
42965;DHT22;28604;51.204;22.552;2024-03-23T02:21:02;10.30;90.30
42965;DHT22;28604;51.204;22.552;2024-03-23T02:23:28;10.20;90.30
42965;DHT22;28604;51.204;22.552;2024-03-23T02:25:54;10.30;90.20
42965;DHT22;28604;51.204;22.552;2024-03-23T02:28:20;10.30;90.20
42965;DHT22;28604;51.204;22.552;2024-03-23T02:30:46;10.30;90.10
42965;DHT22;28604;51.204;22.552;2024-03-23T02:33:12;10.20;90.10
42965;DHT22;28604;51.204;22.552;2024-03-23T02:35:37;10.30;90.20
42965;DHT22;28604;51.204;22.552;2024-03-23T02:38:03;10.20;90.40
42965;DHT22;28604;51.204;22.552;2024-03-23T02:40:30;10.30;90.50
42965;DHT22;28604;51.204;22.552;2024-03-23T02:42:55;10.20;90.40
42965;DHT22;28604;51.204;22.552;2024-03-23T02:45:21;10.20;90.30
42965;DHT22;28604;51.204;22.552;2024-03-23T02:47:47;10.20;90.30
42965;DHT22;28604;51.204;22.552;2024-03-23T02:50:20;10.20;90.10
42965;DHT22;28604;51.204;22.552;2024-03-23T02:52:46;10.20;90.10
42965;DHT22;28604;51.204;22.552;2024-03-23T02:55:12;10.20;90.30
42965;DHT22;28604;51.204;22.552;2024-03-23T02:57:38;10.20;90.30
42965;DHT22;28604;51.204;22.552;2024-03-23T03:00:04;10.20;90.40
42965;DHT22;28604;51.204;22.552;2024-03-23T03:02:31;10.20;90.40
42965;DHT22;28604;51.204;22.552;2024-03-23T03:04:57;10.20;90.40
42965;DHT22;28604;51.204;22.552;2024-03-23T03:07:23;10.10;90.30
42965;DHT22;28604;51.204;22.552;2024-03-23T03:09:49;10.10;90.50
42965;DHT22;28604;51.204;22.552;2024-03-23T03:12:22;10.10;90.70
42965;DHT22;28604;51.204;22.552;2024-03-23T03:14:48;10.10;90.60
42965;DHT22;28604;51.204;22.552;2024-03-23T03:17:13;10.10;90.50
42965;DHT22;28604;51.204;22.552;2024-03-23T03:19:40;10.10;90.70
42965;DHT22;28604;51.204;22.552;2024-03-23T03:22:06;10.00;90.60
42965;DHT22;28604;51.204;22.552;2024-03-23T03:24:32;10.10;90.80
42965;DHT22;28604;51.204;22.552;2024-03-23T03:26:58;10.10;90.90
42965;DHT22;28604;51.204;22.552;2024-03-23T03:29:24;10.10;90.90
42965;DHT22;28604;51.204;22.552;2024-03-23T03:31:50;10.10;91.00
42965;DHT22;28604;51.204;22.552;2024-03-23T03:34:16;10.00;90.90
42965;DHT22;28604;51.204;22.552;2024-03-23T03:36:41;10.10;91.00
42965;DHT22;28604;51.204;22.552;2024-03-23T03:39:07;10.10;91.00
42965;DHT22;28604;51.204;22.552;2024-03-23T03:41:33;10.10;91.00
42965;DHT22;28604;51.204;22.552;2024-03-23T03:43:59;10.10;90.90
42965;DHT22;28604;51.204;22.552;2024-03-23T03:46:30;10.20;91.00
42965;DHT22;28604;51.204;22.552;2024-03-23T03:48:56;10.10;91.20
42965;DHT22;28604;51.204;22.552;2024-03-23T03:51:22;10.00;91.10
42965;DHT22;28604;51.204;22.552;2024-03-23T03:53:48;10.00;91.20
42965;DHT22;28604;51.204;22.552;2024-03-23T03:56:13;10.10;91.10
42965;DHT22;28604;51.204;22.552;2024-03-23T03:58:39;10.00;91.20
42965;DHT22;28604;51.204;22.552;2024-03-23T04:01:08;10.00;91.50
42965;DHT22;28604;51.204;22.552;2024-03-23T04:03:34;10.00;91.40
42965;DHT22;28604;51.204;22.552;2024-03-23T04:05:59;10.00;91.50
42965;DHT22;28604;51.204;22.552;2024-03-23T04:08:25;10.00;91.50
42965;DHT22;28604;51.204;22.552;2024-03-23T04:10:51;9.90;91.70
42965;DHT22;28604;51.204;22.552;2024-03-23T04:13:17;10.00;91.50
42965;DHT22;28604;51.204;22.552;2024-03-23T04:15:43;9.90;91.70
42965;DHT22;28604;51.204;22.552;2024-03-23T04:18:09;9.90;92.00
42965;DHT22;28604;51.204;22.552;2024-03-23T04:20:34;9.90;92.20
42965;DHT22;28604;51.204;22.552;2024-03-23T04:23:00;9.80;91.80
42965;DHT22;28604;51.204;22.552;2024-03-23T04:25:26;9.80;91.90
42965;DHT22;28604;51.204;22.552;2024-03-23T04:27:52;9.80;92.20
42965;DHT22;28604;51.204;22.552;2024-03-23T04:30:18;9.80;92.30
42965;DHT22;28604;51.204;22.552;2024-03-23T04:32:45;9.80;92.40
42965;DHT22;28604;51.204;22.552;2024-03-23T04:35:10;9.80;92.00
42965;DHT22;28604;51.204;22.552;2024-03-23T04:37:37;9.80;92.00
42965;DHT22;28604;51.204;22.552;2024-03-23T04:40:03;9.70;92.10
42965;DHT22;28604;51.204;22.552;2024-03-23T04:42:29;9.70;92.10
42965;DHT22;28604;51.204;22.552;2024-03-23T04:44:55;9.80;92.20
42965;DHT22;28604;51.204;22.552;2024-03-23T04:47:21;9.70;92.10
42965;DHT22;28604;51.204;22.552;2024-03-23T04:49:47;9.70;92.30
42965;DHT22;28604;51.204;22.552;2024-03-23T06:23:46;9.60;93.40
42965;DHT22;28604;51.204;22.552;2024-03-23T06:26:19;9.70;93.20
42965;DHT22;28604;51.204;22.552;2024-03-23T06:28:45;9.60;93.40
42965;DHT22;28604;51.204;22.552;2024-03-23T06:31:11;9.70;93.20
42965;DHT22;28604;51.204;22.552;2024-03-23T06:33:37;9.60;93.30
42965;DHT22;28604;51.204;22.552;2024-03-23T06:36:04;9.70;93.60
42965;DHT22;28604;51.204;22.552;2024-03-23T06:38:30;9.60;93.40
42965;DHT22;28604;51.204;22.552;2024-03-23T06:40:56;9.70;93.10
42965;DHT22;28604;51.204;22.552;2024-03-23T06:43:21;9.70;93.20
42965;DHT22;28604;51.204;22.552;2024-03-23T06:45:53;9.70;93.40
42965;DHT22;28604;51.204;22.552;2024-03-23T06:48:19;9.70;93.20
42965;DHT22;28604;51.204;22.552;2024-03-23T06:50:45;9.70;93.20
42965;DHT22;28604;51.204;22.552;2024-03-23T06:53:12;9.70;93.50
42965;DHT22;28604;51.204;22.552;2024-03-23T06:55:38;9.80;93.20
42965;DHT22;28604;51.204;22.552;2024-03-23T06:58:04;9.80;93.80
42965;DHT22;28604;51.204;22.552;2024-03-23T07:00:30;9.70;93.60
42965;DHT22;28604;51.204;22.552;2024-03-23T07:02:56;9.80;93.50
42965;DHT22;28604;51.204;22.552;2024-03-23T07:05:22;9.70;93.50
42965;DHT22;28604;51.204;22.552;2024-03-23T07:07:47;9.80;93.80
42965;DHT22;28604;51.204;22.552;2024-03-23T07:10:13;9.80;93.80
42965;DHT22;28604;51.204;22.552;2024-03-23T07:12:39;9.80;93.50
42965;DHT22;28604;51.204;22.552;2024-03-23T07:15:05;9.80;93.60
42965;DHT22;28604;51.204;22.552;2024-03-23T07:17:31;9.80;93.60
42965;DHT22;28604;51.204;22.552;2024-03-23T07:19:58;9.80;93.80
42965;DHT22;28604;51.204;22.552;2024-03-23T07:22:25;9.80;93.50
42965;DHT22;28604;51.204;22.552;2024-03-23T07:24:52;9.80;93.80
42965;DHT22;28604;51.204;22.552;2024-03-23T07:27:18;9.70;93.60
42965;DHT22;28604;51.204;22.552;2024-03-23T07:29:44;9.80;93.50
42965;DHT22;28604;51.204;22.552;2024-03-23T07:32:10;9.80;93.90
42965;DHT22;28604;51.204;22.552;2024-03-23T07:34:37;9.80;93.60
42965;DHT22;28604;51.204;22.552;2024-03-23T07:37:03;9.80;94.10
42965;DHT22;28604;51.204;22.552;2024-03-23T07:39:29;9.90;93.60
42965;DHT22;28604;51.204;22.552;2024-03-23T07:41:55;9.90;93.80
42965;DHT22;28604;51.204;22.552;2024-03-23T07:44:21;9.90;93.80
42965;DHT22;28604;51.204;22.552;2024-03-23T07:46:46;9.90;93.70
42965;DHT22;28604;51.204;22.552;2024-03-23T07:49:12;10.00;93.60
42965;DHT22;28604;51.204;22.552;2024-03-23T07:51:38;10.00;93.80
42965;DHT22;28604;51.204;22.552;2024-03-23T07:54:05;10.20;93.50
42965;DHT22;28604;51.204;22.552;2024-03-23T07:56:31;10.00;93.50
42965;DHT22;28604;51.204;22.552;2024-03-23T07:58:57;10.00;93.80
42965;DHT22;28604;51.204;22.552;2024-03-23T08:01:23;10.10;93.80
42965;DHT22;28604;51.204;22.552;2024-03-23T08:03:49;10.10;93.60
42965;DHT22;28604;51.204;22.552;2024-03-23T08:06:19;10.30;93.70
42965;DHT22;28604;51.204;22.552;2024-03-23T08:08:54;10.20;93.80
42965;DHT22;28604;51.204;22.552;2024-03-23T08:11:27;10.20;93.80
42965;DHT22;28604;51.204;22.552;2024-03-23T08:13:53;10.30;93.90
42965;DHT22;28604;51.204;22.552;2024-03-23T08:16:19;10.30;93.50
42965;DHT22;28604;51.204;22.552;2024-03-23T08:18:45;10.30;93.60
42965;DHT22;28604;51.204;22.552;2024-03-23T08:21:11;10.30;93.30
42965;DHT22;28604;51.204;22.552;2024-03-23T09:57:02;11.00;93.60
42965;DHT22;28604;51.204;22.552;2024-03-23T09:59:29;11.10;93.30
42965;DHT22;28604;51.204;22.552;2024-03-23T10:01:55;11.10;93.50
42965;DHT22;28604;51.204;22.552;2024-03-23T10:07:17;11.10;93.40
42965;DHT22;28604;51.204;22.552;2024-03-23T10:09:43;11.10;93.60
42965;DHT22;28604;51.204;22.552;2024-03-23T10:12:13;11.20;93.60
42965;DHT22;28604;51.204;22.552;2024-03-23T10:14:42;11.20;93.50
42965;DHT22;28604;51.204;22.552;2024-03-23T10:17:15;11.30;93.60
42965;DHT22;28604;51.204;22.552;2024-03-23T10:19:46;11.30;93.30
42965;DHT22;28604;51.204;22.552;2024-03-23T10:22:14;11.30;93.50
42965;DHT22;28604;51.204;22.552;2024-03-23T10:24:40;11.30;93.60
42965;DHT22;28604;51.204;22.552;2024-03-23T10:27:06;11.40;93.30
42965;DHT22;28604;51.204;22.552;2024-03-23T10:29:32;11.40;93.20
42965;DHT22;28604;51.204;22.552;2024-03-23T10:32:07;11.40;93.10
42965;DHT22;28604;51.204;22.552;2024-03-23T10:34:34;11.40;93.00
42965;DHT22;28604;51.204;22.552;2024-03-23T10:37:01;11.40;93.00
42965;DHT22;28604;51.204;22.552;2024-03-23T10:39:28;11.40;92.80
42965;DHT22;28604;51.204;22.552;2024-03-23T10:41:54;11.40;93.00
42965;DHT22;28604;51.204;22.552;2024-03-23T10:44:22;11.40;93.10
42965;DHT22;28604;51.204;22.552;2024-03-23T10:46:50;11.30;93.00
42965;DHT22;28604;51.204;22.552;2024-03-23T10:49:17;11.30;92.80
42965;DHT22;28604;51.204;22.552;2024-03-23T10:51:43;11.30;92.80
42965;DHT22;28604;51.204;22.552;2024-03-23T10:54:09;11.40;92.90
42965;DHT22;28604;51.204;22.552;2024-03-23T10:56:38;11.30;92.90
42965;DHT22;28604;51.204;22.552;2024-03-23T10:59:05;11.40;92.90
42965;DHT22;28604;51.204;22.552;2024-03-23T11:01:32;11.50;93.00
42965;DHT22;28604;51.204;22.552;2024-03-23T11:03:58;11.50;93.10
42965;DHT22;28604;51.204;22.552;2024-03-23T11:06:37;11.50;93.30
42965;DHT22;28604;51.204;22.552;2024-03-23T11:09:03;11.50;93.00
42965;DHT22;28604;51.204;22.552;2024-03-23T11:11:29;11.60;93.50
42965;DHT22;28604;51.204;22.552;2024-03-23T11:13:57;11.70;93.40
42965;DHT22;28604;51.204;22.552;2024-03-23T11:16:26;11.80;93.00
42965;DHT22;28604;51.204;22.552;2024-03-23T11:21:51;12.10;93.20
42965;DHT22;28604;51.204;22.552;2024-03-23T11:24:17;12.20;93.10
42965;DHT22;28604;51.204;22.552;2024-03-23T11:26:44;12.30;93.00
42965;DHT22;28604;51.204;22.552;2024-03-23T11:29:13;12.50;93.10
42965;DHT22;28604;51.204;22.552;2024-03-23T11:31:45;12.60;92.90
42965;DHT22;28604;51.204;22.552;2024-03-23T11:34:11;12.70;92.60
42965;DHT22;28604;51.204;22.552;2024-03-23T11:36:37;12.90;92.80
42965;DHT22;28604;51.204;22.552;2024-03-23T11:39:13;12.90;92.40
42965;DHT22;28604;51.204;22.552;2024-03-23T11:41:46;13.20;92.30
42965;DHT22;28604;51.204;22.552;2024-03-23T11:44:30;13.40;92.10
42965;DHT22;28604;51.204;22.552;2024-03-23T11:47:06;13.50;91.60
42965;DHT22;28604;51.204;22.552;2024-03-23T11:49:33;13.70;91.60
42965;DHT22;28604;51.204;22.552;2024-03-23T11:51:58;13.60;90.80
42965;DHT22;28604;51.204;22.552;2024-03-23T11:54:26;13.90;90.70
42965;DHT22;28604;51.204;22.552;2024-03-23T11:57:02;13.80;90.20
42965;DHT22;28604;51.204;22.552;2024-03-23T11:59:37;13.90;90.00
42965;DHT22;28604;51.204;22.552;2024-03-23T12:04:32;14.00;90.40
42965;DHT22;28604;51.204;22.552;2024-03-23T12:09:48;14.20;90.30
42965;DHT22;28604;51.204;22.552;2024-03-23T12:12:27;14.40;90.30
42965;DHT22;28604;51.204;22.552;2024-03-23T12:15:05;14.40;89.60
42965;DHT22;28604;51.204;22.552;2024-03-23T12:17:31;14.60;89.50
42965;DHT22;28604;51.204;22.552;2024-03-23T12:19:58;14.80;89.60
42965;DHT22;28604;51.204;22.552;2024-03-23T12:22:24;14.70;85.70
42965;DHT22;28604;51.204;22.552;2024-03-23T12:24:50;14.80;88.80
42965;DHT22;28604;51.204;22.552;2024-03-23T12:27:16;14.90;88.10
42965;DHT22;28604;51.204;22.552;2024-03-23T12:29:42;15.00;86.20
42965;DHT22;28604;51.204;22.552;2024-03-23T12:32:12;15.10;87.60
42965;DHT22;28604;51.204;22.552;2024-03-23T12:34:39;15.10;85.50
42965;DHT22;28604;51.204;22.552;2024-03-23T12:37:05;15.20;85.90
42965;DHT22;28604;51.204;22.552;2024-03-23T12:39:35;15.70;87.20
42965;DHT22;28604;51.204;22.552;2024-03-23T12:42:01;15.60;86.30
42965;DHT22;28604;51.204;22.552;2024-03-23T12:44:28;15.70;85.10
42965;DHT22;28604;51.204;22.552;2024-03-23T12:46:54;15.70;85.70
42965;DHT22;28604;51.204;22.552;2024-03-23T12:49:20;15.60;84.20
42965;DHT22;28604;51.204;22.552;2024-03-23T12:51:48;15.70;83.80
42965;DHT22;28604;51.204;22.552;2024-03-23T12:54:18;15.80;83.90
42965;DHT22;28604;51.204;22.552;2024-03-23T12:56:45;15.80;85.20
42965;DHT22;28604;51.204;22.552;2024-03-23T12:59:11;16.00;83.60
42965;DHT22;28604;51.204;22.552;2024-03-23T13:01:38;16.00;82.00
42965;DHT22;28604;51.204;22.552;2024-03-23T13:04:04;16.30;83.00
42965;DHT22;28604;51.204;22.552;2024-03-23T13:06:30;16.20;82.90
42965;DHT22;28604;51.204;22.552;2024-03-23T13:09:00;16.50;81.10
42965;DHT22;28604;51.204;22.552;2024-03-23T13:11:27;16.30;81.00
42965;DHT22;28604;51.204;22.552;2024-03-23T13:13:53;16.30;80.30
42965;DHT22;28604;51.204;22.552;2024-03-23T13:16:19;16.30;80.30
42965;DHT22;28604;51.204;22.552;2024-03-23T13:18:45;16.20;80.30
42965;DHT22;28604;51.204;22.552;2024-03-23T13:21:10;16.40;80.60
42965;DHT22;28604;51.204;22.552;2024-03-23T13:23:36;16.50;77.70
42965;DHT22;28604;51.204;22.552;2024-03-23T13:26:03;16.40;79.00
42965;DHT22;28604;51.204;22.552;2024-03-23T13:28:29;16.30;79.10
42965;DHT22;28604;51.204;22.552;2024-03-23T13:30:56;16.40;79.60
42965;DHT22;28604;51.204;22.552;2024-03-23T13:33:22;16.60;77.90
42965;DHT22;28604;51.204;22.552;2024-03-23T13:35:54;16.50;79.50
42965;DHT22;28604;51.204;22.552;2024-03-23T13:38:23;16.50;77.30
42965;DHT22;28604;51.204;22.552;2024-03-23T13:40:59;16.60;79.20
42965;DHT22;28604;51.204;22.552;2024-03-23T13:43:26;16.70;78.50
42965;DHT22;28604;51.204;22.552;2024-03-23T13:45:55;16.80;77.50
42965;DHT22;28604;51.204;22.552;2024-03-23T13:48:22;16.80;78.40
42965;DHT22;28604;51.204;22.552;2024-03-23T13:50:56;17.00;77.10
42965;DHT22;28604;51.204;22.552;2024-03-23T13:53:22;17.00;78.00
42965;DHT22;28604;51.204;22.552;2024-03-23T13:55:49;17.10;75.90
42965;DHT22;28604;51.204;22.552;2024-03-23T13:58:15;17.00;77.30
42965;DHT22;28604;51.204;22.552;2024-03-23T14:00:41;17.10;75.70
42965;DHT22;28604;51.204;22.552;2024-03-23T14:03:11;17.10;76.00
42965;DHT22;28604;51.204;22.552;2024-03-23T14:05:37;17.10;76.30
42965;DHT22;28604;51.204;22.552;2024-03-23T14:08:06;17.10;76.40
42965;DHT22;28604;51.204;22.552;2024-03-23T14:10:32;17.10;75.80
42965;DHT22;28604;51.204;22.552;2024-03-23T14:12:58;17.10;76.00
42965;DHT22;28604;51.204;22.552;2024-03-23T14:15:28;17.10;73.00
42965;DHT22;28604;51.204;22.552;2024-03-23T14:17:56;17.20;75.00
42965;DHT22;28604;51.204;22.552;2024-03-23T14:20:22;17.20;75.00
42965;DHT22;28604;51.204;22.552;2024-03-23T14:22:48;17.30;73.50
42965;DHT22;28604;51.204;22.552;2024-03-23T14:25:14;17.30;73.90
42965;DHT22;28604;51.204;22.552;2024-03-23T14:27:40;17.20;74.20
42965;DHT22;28604;51.204;22.552;2024-03-23T14:30:06;17.20;74.20
42965;DHT22;28604;51.204;22.552;2024-03-23T14:32:32;17.30;74.90
42965;DHT22;28604;51.204;22.552;2024-03-23T14:35:03;17.30;74.90
42965;DHT22;28604;51.204;22.552;2024-03-23T14:37:29;17.30;73.50
42965;DHT22;28604;51.204;22.552;2024-03-23T14:39:55;17.20;71.00
42965;DHT22;28604;51.204;22.552;2024-03-23T14:42:22;17.30;72.90
42965;DHT22;28604;51.204;22.552;2024-03-23T14:44:47;17.20;71.40
42965;DHT22;28604;51.204;22.552;2024-03-23T14:47:13;17.10;72.70
42965;DHT22;28604;51.204;22.552;2024-03-23T14:49:39;17.10;73.70
42965;DHT22;28604;51.204;22.552;2024-03-23T14:52:05;17.20;73.80
42965;DHT22;28604;51.204;22.552;2024-03-23T14:54:31;17.10;73.50
42965;DHT22;28604;51.204;22.552;2024-03-23T14:56:57;17.10;72.80
42965;DHT22;28604;51.204;22.552;2024-03-23T14:59:24;17.10;72.70
42965;DHT22;28604;51.204;22.552;2024-03-23T15:01:50;17.20;74.30
42965;DHT22;28604;51.204;22.552;2024-03-23T16:03:00;15.80;74.00
42965;DHT22;28604;51.204;22.552;2024-03-23T16:05:26;15.70;75.50
42965;DHT22;28604;51.204;22.552;2024-03-23T16:07:53;15.70;75.20
42965;DHT22;28604;51.204;22.552;2024-03-23T16:10:19;15.50;75.60
42965;DHT22;28604;51.204;22.552;2024-03-23T16:12:45;15.60;75.70
42965;DHT22;28604;51.204;22.552;2024-03-23T16:15:11;15.50;76.10
42965;DHT22;28604;51.204;22.552;2024-03-23T16:17:37;15.40;76.30
42965;DHT22;28604;51.204;22.552;2024-03-23T16:20:05;15.40;76.50
42965;DHT22;28604;51.204;22.552;2024-03-23T16:22:34;15.40;76.50
42965;DHT22;28604;51.204;22.552;2024-03-23T16:25:00;15.20;75.10
42965;DHT22;28604;51.204;22.552;2024-03-23T16:27:26;15.20;76.10
42965;DHT22;28604;51.204;22.552;2024-03-23T16:29:52;15.10;76.10
42965;DHT22;28604;51.204;22.552;2024-03-23T16:32:18;15.10;76.90
42965;DHT22;28604;51.204;22.552;2024-03-23T16:34:44;15.00;76.90
42965;DHT22;28604;51.204;22.552;2024-03-23T16:37:10;14.90;74.60
42965;DHT22;28604;51.204;22.552;2024-03-23T16:39:36;14.80;77.40
42965;DHT22;28604;51.204;22.552;2024-03-23T16:42:02;14.90;76.70
42965;DHT22;28604;51.204;22.552;2024-03-23T16:44:29;14.80;76.90
42965;DHT22;28604;51.204;22.552;2024-03-23T16:46:55;14.80;77.30
42965;DHT22;28604;51.204;22.552;2024-03-23T16:49:22;14.70;77.40
42965;DHT22;28604;51.204;22.552;2024-03-23T16:51:48;14.60;78.00
42965;DHT22;28604;51.204;22.552;2024-03-23T16:54:15;14.60;78.30
42965;DHT22;28604;51.204;22.552;2024-03-23T16:56:40;14.60;77.90
42965;DHT22;28604;51.204;22.552;2024-03-23T16:59:06;14.60;77.80
42965;DHT22;28604;51.204;22.552;2024-03-23T17:01:32;14.50;79.40
42965;DHT22;28604;51.204;22.552;2024-03-23T17:03:58;14.40;80.60
42965;DHT22;28604;51.204;22.552;2024-03-23T17:06:25;14.40;82.90
42965;DHT22;28604;51.204;22.552;2024-03-23T17:08:51;14.30;82.20
42965;DHT22;28604;51.204;22.552;2024-03-23T17:11:18;14.30;82.30
42965;DHT22;28604;51.204;22.552;2024-03-23T17:13:44;14.20;82.50
42965;DHT22;28604;51.204;22.552;2024-03-23T17:16:10;14.10;82.10
42965;DHT22;28604;51.204;22.552;2024-03-23T17:18:37;14.00;82.90
42965;DHT22;28604;51.204;22.552;2024-03-23T17:21:03;14.00;82.90
42965;DHT22;28604;51.204;22.552;2024-03-23T17:23:30;13.90;82.70
42965;DHT22;28604;51.204;22.552;2024-03-23T17:25:56;13.80;83.20
42965;DHT22;28604;51.204;22.552;2024-03-23T17:28:22;13.70;83.60
42965;DHT22;28604;51.204;22.552;2024-03-23T17:30:48;13.60;84.60
42965;DHT22;28604;51.204;22.552;2024-03-23T17:33:14;13.60;85.00
42965;DHT22;28604;51.204;22.552;2024-03-23T17:35:40;13.60;85.40
42965;DHT22;28604;51.204;22.552;2024-03-23T17:38:06;13.50;85.30
42965;DHT22;28604;51.204;22.552;2024-03-23T17:40:32;13.50;85.90
42965;DHT22;28604;51.204;22.552;2024-03-23T17:42:58;13.40;85.80
42965;DHT22;28604;51.204;22.552;2024-03-23T17:45:24;13.40;85.60
42965;DHT22;28604;51.204;22.552;2024-03-23T17:47:51;13.30;85.60
42965;DHT22;28604;51.204;22.552;2024-03-23T17:50:17;13.30;86.20
42965;DHT22;28604;51.204;22.552;2024-03-23T17:52:43;13.30;86.70
42965;DHT22;28604;51.204;22.552;2024-03-23T17:55:09;13.20;87.60
42965;DHT22;28604;51.204;22.552;2024-03-23T17:57:35;13.20;87.10
42965;DHT22;28604;51.204;22.552;2024-03-23T18:00:01;13.30;87.60
42965;DHT22;28604;51.204;22.552;2024-03-23T20:33:41;10.80;89.20
42965;DHT22;28604;51.204;22.552;2024-03-23T20:36:07;10.60;89.10
42965;DHT22;28604;51.204;22.552;2024-03-23T20:38:32;10.50;88.90
42965;DHT22;28604;51.204;22.552;2024-03-23T20:40:58;10.50;88.70
42965;DHT22;28604;51.204;22.552;2024-03-23T20:43:27;10.30;88.50
42965;DHT22;28604;51.204;22.552;2024-03-23T20:46:01;10.30;88.70
42965;DHT22;28604;51.204;22.552;2024-03-23T20:48:28;10.20;88.50
42965;DHT22;28604;51.204;22.552;2024-03-23T20:50:55;10.10;88.60
42965;DHT22;28604;51.204;22.552;2024-03-23T20:53:20;10.00;88.40
42965;DHT22;28604;51.204;22.552;2024-03-23T20:55:55;9.90;88.30
42965;DHT22;28604;51.204;22.552;2024-03-23T20:58:21;9.80;88.70
42965;DHT22;28604;51.204;22.552;2024-03-23T21:00:47;9.70;88.60
42965;DHT22;28604;51.204;22.552;2024-03-23T21:03:13;9.60;88.60
42965;DHT22;28604;51.204;22.552;2024-03-23T21:05:39;9.70;88.90
42965;DHT22;28604;51.204;22.552;2024-03-23T21:08:04;9.50;88.70
42965;DHT22;28604;51.204;22.552;2024-03-23T21:10:30;9.50;88.90
42965;DHT22;28604;51.204;22.552;2024-03-23T21:12:56;9.40;89.60
42965;DHT22;28604;51.204;22.552;2024-03-23T21:15:22;9.50;89.80
42965;DHT22;28604;51.204;22.552;2024-03-23T21:17:48;9.40;89.40
42965;DHT22;28604;51.204;22.552;2024-03-23T21:20:14;9.40;89.30
42965;DHT22;28604;51.204;22.552;2024-03-23T21:22:40;9.30;89.40
42965;DHT22;28604;51.204;22.552;2024-03-23T21:25:06;9.20;89.20
42965;DHT22;28604;51.204;22.552;2024-03-23T21:27:31;9.20;88.50
42965;DHT22;28604;51.204;22.552;2024-03-23T21:29:57;9.20;88.50
42965;DHT22;28604;51.204;22.552;2024-03-23T21:32:23;9.10;87.60
42965;DHT22;28604;51.204;22.552;2024-03-23T21:34:50;9.10;87.30
42965;DHT22;28604;51.204;22.552;2024-03-23T21:37:15;9.10;87.40
42965;DHT22;28604;51.204;22.552;2024-03-23T21:39:41;8.90;87.30
42965;DHT22;28604;51.204;22.552;2024-03-23T21:42:08;8.70;87.00
42965;DHT22;28604;51.204;22.552;2024-03-23T21:44:34;8.60;87.30
42965;DHT22;28604;51.204;22.552;2024-03-23T21:47:00;8.60;87.70
42965;DHT22;28604;51.204;22.552;2024-03-23T21:49:26;8.60;87.60
42965;DHT22;28604;51.204;22.552;2024-03-23T21:51:52;8.50;87.30
42965;DHT22;28604;51.204;22.552;2024-03-23T21:54:18;8.50;87.40
42965;DHT22;28604;51.204;22.552;2024-03-23T21:56:43;8.40;87.60
42965;DHT22;28604;51.204;22.552;2024-03-23T21:59:09;8.40;87.50
42965;DHT22;28604;51.204;22.552;2024-03-23T22:01:35;8.30;87.50
42965;DHT22;28604;51.204;22.552;2024-03-23T22:04:02;8.50;87.30
42965;DHT22;28604;51.204;22.552;2024-03-23T22:06:28;8.30;87.80
42965;DHT22;28604;51.204;22.552;2024-03-23T22:08:54;8.20;87.20
42965;DHT22;28604;51.204;22.552;2024-03-23T22:11:20;8.20;87.10
42965;DHT22;28604;51.204;22.552;2024-03-23T22:13:46;8.20;87.40
42965;DHT22;28604;51.204;22.552;2024-03-23T22:16:12;8.10;87.10
42965;DHT22;28604;51.204;22.552;2024-03-23T22:18:38;8.10;87.80
42965;DHT22;28604;51.204;22.552;2024-03-23T22:21:04;8.10;87.30
42965;DHT22;28604;51.204;22.552;2024-03-23T22:23:30;8.10;87.20
42965;DHT22;28604;51.204;22.552;2024-03-23T22:25:56;8.10;87.40
42965;DHT22;28604;51.204;22.552;2024-03-23T22:28:25;8.10;87.70
42965;DHT22;28604;51.204;22.552;2024-03-23T22:30:57;8.00;87.50
